createdAt,value
2022-11-14T00:00:29.697Z,84.10
2022-11-14T00:03:17.688Z,84.40
2022-11-14T00:06:06.071Z,84.40
2022-11-14T00:08:52.424Z,84.40
2022-11-14T00:11:38.891Z,84.40
2022-11-14T00:14:25.333Z,84.50
2022-11-14T00:17:11.512Z,84.60
2022-11-14T00:19:59.482Z,84.60
2022-11-14T00:22:45.692Z,84.70
2022-11-14T00:25:32.523Z,84.70
2022-11-14T00:28:18.873Z,84.80
2022-11-14T00:31:05.940Z,84.90
2022-11-14T00:33:52.533Z,85.00
2022-11-14T00:36:40.358Z,85.00
2022-11-14T00:39:27.041Z,85.00
2022-11-14T00:42:13.468Z,85.20
2022-11-14T00:45:00.143Z,85.10
2022-11-14T00:47:46.562Z,85.10
2022-11-14T00:50:33.114Z,85.10
2022-11-14T00:53:20.900Z,85.00
2022-11-14T00:56:07.817Z,84.90
2022-11-14T00:58:54.452Z,84.90
2022-11-14T01:01:41.099Z,84.90
2022-11-14T01:04:27.542Z,84.70
2022-11-14T01:07:14.087Z,84.60
2022-11-14T01:10:02.016Z,84.40
2022-11-14T01:12:49.632Z,84.20
2022-11-14T01:15:39.373Z,84.10
2022-11-14T01:18:25.794Z,84.10
2022-11-14T01:21:13.086Z,84.10
2022-11-14T01:23:59.839Z,84.20
2022-11-14T01:26:47.838Z,84.20
2022-11-14T01:29:34.158Z,84.00
2022-11-14T01:32:20.442Z,83.90
2022-11-14T01:35:07.296Z,83.90
2022-11-14T01:37:53.798Z,83.80
2022-11-14T01:40:42.209Z,83.80
2022-11-14T01:43:31.122Z,83.80
2022-11-14T01:46:20.728Z,83.80
2022-11-14T01:49:11.386Z,83.70
2022-11-14T01:52:03.212Z,84.10
2022-11-14T01:54:51.064Z,84.10
2022-11-14T01:57:43.077Z,84.30
2022-11-14T02:00:31.209Z,84.20
2022-11-14T02:03:18.391Z,84.10
2022-11-14T02:06:05.679Z,84.10
2022-11-14T02:08:52.540Z,84.10
2022-11-14T02:11:41.059Z,84.10
2022-11-14T02:14:27.811Z,84.20
2022-11-14T02:17:29.460Z,84.20
2022-11-14T02:20:20.232Z,84.20
2022-11-14T02:23:06.779Z,84.20
2022-11-14T02:25:53.525Z,84.20
2022-11-14T02:28:39.757Z,84.20
2022-11-14T02:31:26.162Z,84.20
2022-11-14T02:34:12.531Z,84.20
2022-11-14T02:37:00.645Z,84.00
2022-11-14T02:39:48.238Z,83.90
2022-11-14T02:42:40.891Z,83.80
2022-11-14T02:45:27.142Z,83.80
2022-11-14T02:48:13.458Z,83.90
2022-11-14T02:51:00.522Z,83.90
2022-11-14T02:53:48.583Z,83.90
2022-11-14T02:56:35.197Z,84.00
2022-11-14T02:59:21.959Z,84.10
2022-11-14T03:02:08.327Z,84.00
2022-11-14T03:04:55.092Z,84.00
2022-11-14T03:07:41.411Z,83.80
2022-11-14T03:10:29.437Z,83.60
2022-11-14T03:13:15.854Z,83.70
2022-11-14T03:16:05.891Z,83.80
2022-11-14T03:18:52.125Z,83.80
2022-11-14T03:21:38.525Z,83.80
2022-11-14T03:24:24.619Z,83.70
2022-11-14T03:27:12.337Z,83.90
2022-11-14T03:29:58.903Z,83.90
2022-11-14T03:32:45.047Z,83.90
2022-11-14T03:35:31.633Z,84.00
2022-11-14T03:38:18.214Z,84.20
2022-11-14T03:41:04.647Z,84.50
2022-11-14T03:43:53.040Z,84.60
2022-11-14T03:46:39.371Z,84.70
2022-11-14T03:49:25.678Z,84.60
2022-11-14T03:52:12.025Z,84.50
2022-11-14T03:54:58.720Z,84.30
2022-11-14T03:57:44.895Z,84.40
2022-11-14T04:00:32.731Z,84.40
2022-11-14T04:03:18.898Z,84.60
2022-11-14T04:06:07.956Z,84.70
2022-11-14T04:08:56.608Z,84.60
2022-11-14T04:11:42.919Z,84.60
2022-11-14T04:14:29.196Z,84.60
2022-11-14T04:17:16.842Z,84.70
2022-11-14T04:20:03.330Z,84.80
2022-11-14T04:22:49.515Z,84.30
2022-11-14T04:25:36.030Z,84.40
2022-11-14T04:28:22.376Z,84.30
2022-11-14T04:31:09.002Z,84.40
2022-11-14T04:33:56.457Z,84.30
2022-11-14T04:36:42.901Z,84.20
2022-11-14T04:39:29.312Z,84.60
2022-11-14T04:42:15.684Z,84.50
2022-11-14T04:45:02.262Z,84.50
2022-11-14T04:47:48.556Z,84.50
2022-11-14T04:50:36.681Z,84.30
2022-11-14T04:53:23.319Z,84.20
2022-11-14T04:56:10.004Z,84.20
2022-11-14T04:58:56.451Z,84.20
2022-11-14T05:01:43.228Z,84.10
2022-11-14T05:04:29.722Z,84.00
2022-11-14T05:07:17.327Z,84.30
2022-11-14T05:10:04.218Z,84.40
2022-11-14T05:12:53.847Z,84.40
2022-11-14T05:15:40.165Z,84.40
2022-11-14T05:18:26.776Z,84.50
2022-11-14T05:21:14.851Z,84.40
2022-11-14T05:24:02.600Z,84.20
2022-11-14T05:26:48.983Z,84.20
2022-11-14T05:29:38.896Z,84.10
2022-11-14T05:32:25.349Z,83.80
2022-11-14T05:35:12.158Z,83.90
2022-11-14T05:38:01.302Z,83.90
2022-11-14T05:40:49.122Z,84.00
2022-11-14T05:43:36.542Z,83.80
2022-11-14T05:46:22.884Z,83.80
2022-11-14T05:49:09.193Z,83.90
2022-11-14T05:51:55.843Z,84.00
2022-11-14T05:54:42.151Z,83.90
2022-11-14T05:57:29.794Z,84.00
2022-11-14T06:00:16.708Z,84.00
2022-11-14T06:03:03.072Z,84.00
2022-11-14T06:05:50.005Z,84.00
2022-11-14T06:08:36.781Z,83.90
2022-11-14T06:11:23.480Z,83.80
2022-11-14T06:14:11.883Z,83.90
2022-11-14T06:16:58.881Z,84.00
2022-11-14T06:19:45.669Z,84.20
2022-11-14T06:22:33.311Z,84.50
2022-11-14T06:25:19.725Z,84.60
2022-11-14T06:28:06.336Z,84.70
2022-11-14T06:30:57.862Z,84.70
2022-11-14T06:33:51.526Z,84.70
2022-11-14T06:36:38.078Z,84.60
2022-11-14T06:39:24.457Z,84.50
2022-11-14T06:42:10.999Z,84.40
2022-11-14T06:44:57.645Z,84.50
2022-11-14T06:47:45.232Z,84.40
2022-11-14T06:50:31.862Z,84.30
2022-11-14T06:53:18.187Z,84.00
2022-11-14T06:56:05.463Z,83.90
2022-11-14T06:58:52.292Z,83.70
2022-11-14T07:01:38.983Z,83.80
2022-11-14T07:04:27.029Z,83.80
2022-11-14T07:07:14.216Z,83.70
2022-11-14T07:10:00.726Z,83.70
2022-11-14T07:12:47.640Z,83.80
2022-11-14T07:15:34.314Z,83.90
2022-11-14T07:18:20.783Z,84.20
2022-11-14T07:21:09.027Z,84.30
2022-11-14T07:23:55.721Z,84.20
2022-11-14T07:26:42.325Z,84.20
2022-11-14T07:29:28.655Z,84.10
2022-11-14T07:32:15.111Z,84.00
2022-11-14T07:35:02.516Z,83.90
2022-11-14T07:37:56.525Z,83.80
2022-11-14T07:40:42.831Z,83.90
2022-11-14T07:43:29.619Z,84.00
2022-11-14T07:46:16.994Z,83.80
2022-11-14T07:49:03.840Z,83.60
2022-11-14T07:51:50.115Z,83.60
2022-11-14T07:54:38.382Z,83.60
2022-11-14T07:57:25.111Z,83.60
2022-11-14T08:00:12.662Z,83.40
2022-11-14T08:02:59.002Z,83.50
2022-11-14T08:05:45.650Z,83.40
2022-11-14T08:08:32.589Z,83.30
2022-11-14T08:11:41.779Z,83.10
2022-11-14T08:14:29.018Z,83.10
2022-11-14T08:17:15.722Z,83.10
2022-11-14T08:20:02.782Z,83.20
2022-11-14T08:22:51.986Z,83.20
2022-11-14T08:25:39.776Z,83.20
2022-11-14T08:28:28.222Z,83.10
2022-11-14T08:31:15.516Z,83.00
2022-11-14T08:34:02.168Z,82.70
2022-11-14T08:36:49.194Z,82.60
2022-11-14T08:39:36.026Z,82.70
2022-11-14T08:42:23.102Z,82.60
2022-11-14T08:45:11.239Z,82.20
2022-11-14T08:47:57.707Z,82.10
2022-11-14T08:50:44.361Z,82.00
2022-11-14T08:53:30.844Z,81.90
2022-11-14T08:56:17.260Z,81.40
2022-11-14T08:59:04.161Z,81.20
2022-11-14T09:01:52.121Z,80.80
2022-11-14T09:04:38.763Z,81.00
2022-11-14T09:07:25.157Z,80.80
2022-11-14T09:10:11.582Z,81.10
2022-11-14T09:12:58.188Z,80.00
2022-11-14T09:15:44.815Z,78.60
2022-11-14T09:18:33.106Z,75.70
2022-11-14T09:21:19.943Z,74.40
2022-11-14T09:24:06.835Z,75.30
2022-11-14T09:26:56.663Z,75.10
2022-11-14T09:29:45.969Z,75.60
2022-11-14T09:32:32.201Z,76.30
2022-11-14T09:35:20.358Z,76.00
2022-11-14T09:38:07.715Z,76.40
2022-11-14T09:41:00.295Z,75.80
2022-11-14T09:43:53.192Z,73.60
2022-11-14T09:46:41.353Z,74.10
2022-11-14T09:49:31.043Z,75.00
2022-11-14T09:52:26.718Z,74.40
2022-11-14T09:55:14.710Z,73.50
2022-11-14T09:58:02.249Z,73.20
2022-11-14T10:00:51.640Z,71.40
2022-11-14T10:03:43.351Z,70.20
2022-11-14T10:06:32.027Z,68.70
2022-11-14T10:09:30.814Z,69.40
2022-11-14T10:12:22.138Z,71.10
2022-11-14T10:15:17.709Z,71.30
2022-11-14T10:18:07.577Z,71.20
2022-11-14T10:20:55.172Z,71.60
2022-11-14T10:23:48.414Z,72.10
2022-11-14T10:26:37.529Z,72.30
2022-11-14T10:29:33.864Z,72.70
2022-11-14T10:32:29.269Z,73.10
2022-11-14T10:35:17.993Z,73.00
2022-11-14T10:38:06.414Z,73.60
2022-11-14T10:40:54.686Z,72.70
2022-11-14T10:43:44.813Z,72.10
2022-11-14T10:46:35.129Z,71.50
2022-11-14T10:49:22.908Z,71.30
2022-11-14T10:52:13.558Z,71.70
2022-11-14T10:55:01.316Z,71.80
2022-11-14T10:57:47.919Z,72.30
2022-11-14T11:00:35.877Z,72.90
2022-11-14T11:03:41.016Z,72.90
2022-11-14T11:06:27.929Z,73.30
2022-11-14T11:09:33.210Z,73.80
2022-11-14T11:12:20.862Z,73.60
2022-11-14T11:15:16.140Z,73.10
2022-11-14T11:18:05.144Z,72.80
2022-11-14T11:21:02.468Z,72.60
2022-11-14T11:23:50.196Z,73.20
2022-11-14T11:26:36.262Z,72.80
2022-11-14T11:29:22.835Z,72.60
2022-11-14T11:32:09.653Z,71.90
2022-11-14T11:34:58.326Z,71.60
2022-11-14T11:37:46.900Z,71.40
2022-11-14T11:40:33.650Z,71.50
2022-11-14T11:43:38.816Z,71.30
2022-11-14T11:46:29.712Z,70.30
2022-11-14T11:49:19.080Z,70.20
2022-11-14T11:52:12.632Z,70.10
2022-11-14T11:55:02.139Z,71.10
2022-11-14T11:57:50.101Z,71.50
2022-11-14T12:00:37.110Z,71.80
2022-11-14T12:03:25.188Z,72.00
2022-11-14T12:06:14.977Z,71.60
2022-11-14T12:09:09.087Z,71.40
2022-11-14T12:11:56.985Z,71.20
2022-11-14T12:14:52.147Z,71.50
2022-11-14T12:17:54.706Z,71.10
2022-11-14T12:20:47.132Z,71.10
2022-11-14T12:23:47.945Z,71.10
2022-11-14T12:26:52.426Z,71.40
2022-11-14T12:29:54.209Z,71.50
2022-11-14T12:32:43.473Z,71.80
2022-11-14T12:35:32.472Z,72.00
2022-11-14T12:38:21.187Z,72.20
2022-11-14T12:41:08.490Z,72.50
2022-11-14T12:44:16.410Z,72.70
2022-11-14T12:47:15.570Z,72.60
2022-11-14T12:50:07.696Z,72.60
2022-11-14T12:52:54.912Z,72.40
2022-11-14T12:55:59.388Z,72.50
2022-11-14T12:58:51.426Z,73.10
2022-11-14T13:01:42.507Z,73.60
2022-11-14T13:04:35.119Z,73.80
2022-11-14T13:07:31.354Z,73.80
2022-11-14T13:10:27.909Z,73.30
2022-11-14T13:13:33.255Z,73.50
2022-11-14T13:16:42.158Z,73.80
2022-11-14T13:19:46.144Z,73.90
2022-11-14T13:22:43.630Z,74.30
2022-11-14T13:25:30.083Z,74.20
2022-11-14T13:28:35.249Z,74.40
2022-11-14T13:31:21.960Z,74.40
2022-11-14T13:34:23.078Z,74.70
2022-11-14T13:37:16.780Z,74.80
2022-11-14T13:40:13.025Z,74.40
2022-11-14T13:43:02.970Z,73.90
2022-11-14T13:45:53.405Z,73.70
2022-11-14T13:48:53.868Z,73.20
2022-11-14T13:51:44.206Z,72.90
2022-11-14T13:54:30.915Z,72.90
2022-11-14T13:57:23.869Z,72.70
2022-11-14T14:00:19.681Z,72.30
2022-11-14T14:03:20.739Z,72.50
2022-11-14T14:06:14.106Z,72.60
2022-11-14T14:09:09.000Z,73.00
2022-11-14T14:12:06.790Z,73.60
2022-11-14T14:15:12.243Z,73.30
2022-11-14T14:18:06.004Z,73.30
2022-11-14T14:20:56.057Z,72.70
2022-11-14T14:23:47.128Z,72.20
2022-11-14T14:26:37.876Z,72.20
2022-11-14T14:29:25.444Z,72.20
2022-11-14T14:32:14.845Z,72.40
2022-11-14T14:35:03.714Z,72.50
2022-11-14T14:37:52.591Z,72.80
2022-11-14T14:40:40.026Z,73.10
2022-11-14T14:43:29.836Z,73.30
2022-11-14T14:46:16.136Z,73.40
2022-11-14T14:49:05.537Z,73.60
2022-11-14T14:51:57.152Z,73.80
2022-11-14T14:54:54.909Z,74.40
2022-11-14T14:57:41.130Z,75.20
2022-11-14T15:00:28.682Z,75.90
2022-11-14T15:03:15.118Z,76.30
2022-11-14T15:06:03.917Z,76.50
2022-11-14T15:08:50.568Z,76.50
2022-11-14T15:11:42.035Z,76.70
2022-11-14T15:14:30.449Z,76.70
2022-11-14T15:17:17.306Z,76.80
2022-11-14T15:20:05.343Z,77.00
2022-11-14T15:23:06.039Z,77.20
2022-11-14T15:26:02.090Z,77.60
2022-11-14T15:28:48.582Z,77.90
2022-11-14T15:31:36.607Z,78.10
2022-11-14T15:34:28.002Z,78.40
2022-11-14T15:37:22.311Z,78.60
2022-11-14T15:40:18.304Z,79.00
2022-11-14T15:43:23.290Z,79.20
2022-11-14T15:46:27.005Z,79.40
2022-11-14T15:49:23.723Z,79.70
2022-11-14T15:52:18.271Z,79.60
2022-11-14T15:55:05.913Z,79.80
2022-11-14T15:58:21.008Z,79.70
2022-11-14T16:01:00.402Z,79.70
2022-11-14T16:03:48.416Z,79.80
2022-11-14T16:06:35.267Z,79.80
2022-11-14T16:09:22.998Z,80.10
2022-11-14T16:12:09.502Z,80.00
2022-11-14T16:14:57.775Z,80.10
2022-11-14T16:17:49.092Z,80.30
2022-11-14T16:20:38.095Z,80.60
2022-11-14T16:23:24.582Z,81.20
2022-11-14T16:26:11.217Z,81.40
2022-11-14T16:28:58.259Z,81.50
2022-11-14T16:31:47.418Z,81.50
2022-11-14T16:34:34.465Z,81.40
2022-11-14T16:37:21.832Z,81.40
2022-11-14T16:40:13.167Z,81.20
2022-11-14T16:43:00.412Z,81.10
2022-11-14T16:45:47.127Z,81.00
2022-11-14T16:48:35.260Z,80.90
2022-11-14T16:51:46.721Z,80.80
2022-11-14T16:54:27.897Z,80.50
2022-11-14T16:57:14.567Z,80.30
2022-11-14T17:00:01.446Z,80.20
2022-11-14T17:02:48.712Z,80.10
2022-11-14T17:05:43.077Z,79.90
2022-11-14T17:08:29.954Z,79.80
2022-11-14T17:11:16.363Z,79.60
2022-11-14T17:14:02.864Z,79.50
2022-11-14T17:16:49.460Z,79.40
2022-11-14T17:19:36.208Z,79.30
2022-11-14T17:22:24.594Z,79.20
2022-11-14T17:25:11.378Z,79.10
2022-11-14T17:27:59.855Z,78.90
2022-11-14T17:30:46.417Z,78.90
2022-11-14T17:33:33.325Z,78.80
2022-11-14T17:36:20.131Z,78.80
2022-11-14T17:39:08.063Z,78.70
2022-11-14T17:41:54.423Z,78.50
2022-11-14T17:44:40.998Z,78.50
2022-11-14T17:47:27.664Z,78.50
2022-11-14T17:50:14.212Z,78.50
2022-11-14T17:53:00.427Z,78.50
2022-11-14T17:55:54.979Z,78.60
2022-11-14T17:58:41.580Z,78.60
2022-11-14T18:01:30.403Z,78.50
2022-11-14T18:04:17.109Z,78.60
2022-11-14T18:07:03.905Z,78.50
2022-11-14T18:09:50.658Z,78.50
2022-11-14T18:12:38.669Z,78.30
2022-11-14T18:15:28.589Z,78.30
2022-11-14T18:18:15.027Z,78.10
2022-11-14T18:21:06.896Z,78.20
2022-11-14T18:23:54.015Z,78.20
2022-11-14T18:26:40.350Z,78.00
2022-11-14T18:29:28.472Z,78.00
2022-11-14T18:32:15.614Z,77.90
2022-11-14T18:35:02.110Z,78.00
2022-11-14T18:37:48.401Z,78.00
2022-11-14T18:40:35.075Z,78.10
2022-11-14T18:43:21.343Z,78.30
2022-11-14T18:46:10.283Z,78.40
2022-11-14T18:48:57.993Z,78.40
2022-11-14T18:51:44.724Z,78.30
2022-11-14T18:54:31.461Z,78.20
2022-11-14T18:57:17.598Z,78.10
2022-11-14T19:00:05.148Z,77.90
2022-11-14T19:02:52.918Z,77.90
2022-11-14T19:05:39.292Z,77.80
2022-11-14T19:08:26.657Z,77.70
2022-11-14T19:11:34.850Z,77.60
2022-11-14T19:14:21.743Z,77.50
2022-11-14T19:17:08.855Z,77.40
2022-11-14T19:19:57.126Z,77.40
2022-11-14T19:22:45.053Z,77.50
2022-11-14T19:25:37.729Z,77.60
2022-11-14T19:28:25.508Z,77.70
2022-11-14T19:31:12.510Z,77.80
2022-11-14T19:33:59.384Z,77.90
2022-11-14T19:37:00.589Z,77.90
2022-11-14T19:39:47.729Z,77.90
2022-11-14T19:42:34.275Z,78.00
2022-11-14T19:45:20.981Z,78.20
2022-11-14T19:48:07.383Z,78.40
2022-11-14T19:50:59.361Z,78.40
2022-11-14T19:53:47.802Z,78.50
2022-11-14T19:56:34.819Z,78.50
2022-11-14T19:59:24.398Z,78.50
2022-11-14T20:02:13.869Z,78.50
2022-11-14T20:05:00.460Z,78.60
2022-11-14T20:07:47.070Z,78.70
2022-11-14T20:10:47.616Z,78.70
2022-11-14T20:13:35.236Z,78.70
2022-11-14T20:16:23.063Z,78.90
2022-11-14T20:19:10.264Z,78.90
2022-11-14T20:21:56.776Z,79.10
2022-11-14T20:24:43.577Z,79.20
2022-11-14T20:27:31.673Z,79.30
2022-11-14T20:30:18.683Z,79.30
2022-11-14T20:33:05.177Z,79.20
2022-11-14T20:35:51.871Z,79.20
2022-11-14T20:38:38.978Z,79.30
2022-11-14T20:41:26.196Z,79.60
2022-11-14T20:44:14.062Z,79.70
2022-11-14T20:47:00.766Z,80.00
2022-11-14T20:49:47.615Z,80.20
2022-11-14T20:52:35.326Z,80.20
2022-11-14T20:55:26.425Z,80.30
2022-11-14T20:58:12.973Z,80.30
2022-11-14T21:01:01.158Z,80.00
2022-11-14T21:03:47.758Z,79.80
2022-11-14T21:06:33.960Z,79.70
2022-11-14T21:09:20.790Z,79.60
2022-11-14T21:12:07.410Z,79.60
2022-11-14T21:14:53.904Z,79.50
2022-11-14T21:17:41.685Z,79.40
2022-11-14T21:20:28.404Z,79.40
2022-11-14T21:23:14.624Z,79.30
2022-11-14T21:26:05.134Z,79.30
2022-11-14T21:28:53.600Z,79.30
2022-11-14T21:31:41.628Z,79.20
2022-11-14T21:34:29.260Z,79.20
2022-11-14T21:37:16.057Z,79.10
2022-11-14T21:40:02.891Z,79.00
2022-11-14T21:42:49.660Z,79.00
2022-11-14T21:45:36.029Z,78.90
2022-11-14T21:48:22.824Z,78.70
2022-11-14T21:51:12.715Z,78.60
2022-11-14T21:53:59.649Z,78.50
2022-11-14T21:56:45.988Z,78.40
2022-11-14T21:59:32.782Z,78.10
2022-11-14T22:02:36.940Z,78.00
2022-11-14T22:05:23.381Z,78.00
2022-11-14T22:08:11.231Z,77.90
2022-11-14T22:11:01.817Z,77.90
2022-11-14T22:13:48.262Z,77.90
2022-11-14T22:16:34.922Z,78.00
2022-11-14T22:19:21.817Z,78.10
2022-11-14T22:22:08.270Z,78.30
2022-11-14T22:24:56.107Z,78.40
2022-11-14T22:27:43.231Z,78.40
2022-11-14T22:30:31.862Z,78.40
2022-11-14T22:33:18.788Z,78.40
2022-11-14T22:36:07.081Z,78.50
2022-11-14T22:38:54.963Z,78.50
2022-11-14T22:41:43.383Z,78.50
2022-11-14T22:44:30.016Z,78.50
2022-11-14T22:47:16.326Z,78.20
2022-11-14T22:50:03.164Z,78.10
2022-11-14T22:52:49.720Z,77.90
2022-11-14T22:55:36.203Z,78.00
2022-11-14T22:58:24.180Z,77.90
2022-11-14T23:01:11.425Z,77.80
2022-11-14T23:03:59.024Z,77.90
2022-11-14T23:06:45.861Z,78.00
2022-11-14T23:09:32.328Z,78.00
2022-11-14T23:12:18.555Z,78.00
2022-11-14T23:15:07.997Z,78.10
2022-11-14T23:17:54.556Z,78.10
2022-11-14T23:20:41.201Z,78.20
2022-11-14T23:23:27.914Z,78.30
2022-11-14T23:26:15.813Z,78.30
2022-11-14T23:29:02.457Z,78.30
2022-11-14T23:31:51.575Z,78.20
2022-11-14T23:34:38.296Z,78.20
2022-11-14T23:37:24.672Z,78.20
2022-11-14T23:40:11.866Z,78.30
2022-11-14T23:42:58.398Z,78.20
2022-11-14T23:45:44.674Z,78.10
2022-11-14T23:48:33.136Z,78.00
2022-11-14T23:51:19.806Z,77.90
2022-11-14T23:54:06.682Z,77.90
2022-11-14T23:56:53.376Z,78.00
2022-11-14T23:59:40.342Z,77.80
